sensor_id;sensor_type;location;lat;lon;timestamp;P1;durP1;ratioP1;P2;durP2;ratioP2
8948;SDS011;4509;51.522;9.910;2022-07-24T00:01:10;1.90;;;1.90;;
8948;SDS011;4509;51.522;9.910;2022-07-24T00:03:37;1.80;;;1.80;;
8948;SDS011;4509;51.522;9.910;2022-07-24T00:06:04;1.93;;;1.93;;
8948;SDS011;4509;51.522;9.910;2022-07-24T00:08:31;1.60;;;1.60;;
8948;SDS011;4509;51.522;9.910;2022-07-24T00:10:57;1.70;;;1.70;;
8948;SDS011;4509;51.522;9.910;2022-07-24T00:13:26;1.87;;;1.87;;
8948;SDS011;4509;51.522;9.910;2022-07-24T00:15:52;1.80;;;1.80;;
8948;SDS011;4509;51.522;9.910;2022-07-24T00:18:19;1.70;;;1.70;;
8948;SDS011;4509;51.522;9.910;2022-07-24T00:20:45;1.83;;;1.83;;
8948;SDS011;4509;51.522;9.910;2022-07-24T00:23:12;1.60;;;1.60;;
8948;SDS011;4509;51.522;9.910;2022-07-24T00:25:39;1.60;;;1.60;;
8948;SDS011;4509;51.522;9.910;2022-07-24T00:28:05;1.60;;;1.60;;
8948;SDS011;4509;51.522;9.910;2022-07-24T00:30:33;1.60;;;1.60;;
8948;SDS011;4509;51.522;9.910;2022-07-24T00:33:00;1.80;;;1.80;;
8948;SDS011;4509;51.522;9.910;2022-07-24T00:35:27;1.53;;;1.53;;
8948;SDS011;4509;51.522;9.910;2022-07-24T00:37:53;1.53;;;1.53;;
8948;SDS011;4509;51.522;9.910;2022-07-24T00:40:20;1.70;;;1.70;;
8948;SDS011;4509;51.522;9.910;2022-07-24T00:42:47;1.53;;;1.53;;
8948;SDS011;4509;51.522;9.910;2022-07-24T00:45:14;1.60;;;1.60;;
8948;SDS011;4509;51.522;9.910;2022-07-24T00:47:42;1.60;;;1.60;;
8948;SDS011;4509;51.522;9.910;2022-07-24T00:50:09;1.50;;;1.50;;
8948;SDS011;4509;51.522;9.910;2022-07-24T00:52:36;1.70;;;1.70;;
8948;SDS011;4509;51.522;9.910;2022-07-24T00:55:04;1.60;;;1.60;;
8948;SDS011;4509;51.522;9.910;2022-07-24T00:57:31;1.70;;;1.70;;
8948;SDS011;4509;51.522;9.910;2022-07-24T00:59:58;1.70;;;1.70;;
8948;SDS011;4509;51.522;9.910;2022-07-24T01:02:24;1.67;;;1.67;;
8948;SDS011;4509;51.522;9.910;2022-07-24T01:04:52;1.60;;;1.60;;
8948;SDS011;4509;51.522;9.910;2022-07-24T01:07:19;1.67;;;1.67;;
8948;SDS011;4509;51.522;9.910;2022-07-24T01:09:46;1.60;;;1.60;;
8948;SDS011;4509;51.522;9.910;2022-07-24T01:12:12;1.77;;;1.77;;
8948;SDS011;4509;51.522;9.910;2022-07-24T01:14:40;1.73;;;1.73;;
8948;SDS011;4509;51.522;9.910;2022-07-24T01:17:06;1.70;;;1.70;;
8948;SDS011;4509;51.522;9.910;2022-07-24T01:19:33;1.53;;;1.53;;
8948;SDS011;4509;51.522;9.910;2022-07-24T01:22:01;1.80;;;1.80;;
8948;SDS011;4509;51.522;9.910;2022-07-24T01:24:28;1.70;;;1.70;;
8948;SDS011;4509;51.522;9.910;2022-07-24T01:26:54;1.70;;;1.70;;
8948;SDS011;4509;51.522;9.910;2022-07-24T01:29:21;1.60;;;1.60;;
8948;SDS011;4509;51.522;9.910;2022-07-24T01:31:48;1.60;;;1.60;;
8948;SDS011;4509;51.522;9.910;2022-07-24T01:34:14;1.50;;;1.50;;
8948;SDS011;4509;51.522;9.910;2022-07-24T01:36:41;1.53;;;1.53;;
8948;SDS011;4509;51.522;9.910;2022-07-24T01:39:09;1.60;;;1.60;;
8948;SDS011;4509;51.522;9.910;2022-07-24T01:41:36;1.63;;;1.63;;
8948;SDS011;4509;51.522;9.910;2022-07-24T01:44:03;1.60;;;1.60;;
8948;SDS011;4509;51.522;9.910;2022-07-24T01:46:30;1.80;;;1.80;;
8948;SDS011;4509;51.522;9.910;2022-07-24T01:48:56;1.70;;;1.70;;
8948;SDS011;4509;51.522;9.910;2022-07-24T01:51:23;2.00;;;2.00;;
8948;SDS011;4509;51.522;9.910;2022-07-24T01:53:50;1.90;;;1.90;;
8948;SDS011;4509;51.522;9.910;2022-07-24T01:56:18;1.80;;;1.80;;
8948;SDS011;4509;51.522;9.910;2022-07-24T01:58:44;2.00;;;2.00;;
8948;SDS011;4509;51.522;9.910;2022-07-24T02:01:11;1.60;;;1.60;;
8948;SDS011;4509;51.522;9.910;2022-07-24T02:03:38;1.70;;;1.70;;
8948;SDS011;4509;51.522;9.910;2022-07-24T02:06:04;1.70;;;1.70;;
8948;SDS011;4509;51.522;9.910;2022-07-24T02:08:31;1.70;;;1.70;;
8948;SDS011;4509;51.522;9.910;2022-07-24T02:10:58;2.13;;;2.10;;
8948;SDS011;4509;51.522;9.910;2022-07-24T02:13:26;1.80;;;1.80;;
8948;SDS011;4509;51.522;9.910;2022-07-24T02:15:52;1.80;;;1.80;;
8948;SDS011;4509;51.522;9.910;2022-07-24T02:18:19;1.67;;;1.67;;
8948;SDS011;4509;51.522;9.910;2022-07-24T02:20:46;1.50;;;1.50;;
8948;SDS011;4509;51.522;9.910;2022-07-24T02:23:12;1.50;;;1.50;;
8948;SDS011;4509;51.522;9.910;2022-07-24T02:25:42;1.33;;;1.33;;
8948;SDS011;4509;51.522;9.910;2022-07-24T02:28:10;1.60;;;1.60;;
8948;SDS011;4509;51.522;9.910;2022-07-24T02:30:38;1.50;;;1.50;;
8948;SDS011;4509;51.522;9.910;2022-07-24T02:33:05;1.50;;;1.50;;
8948;SDS011;4509;51.522;9.910;2022-07-24T02:35:31;1.70;;;1.70;;
8948;SDS011;4509;51.522;9.910;2022-07-24T02:37:58;1.77;;;1.77;;
8948;SDS011;4509;51.522;9.910;2022-07-24T02:40:25;1.60;;;1.60;;
8948;SDS011;4509;51.522;9.910;2022-07-24T02:42:51;1.60;;;1.60;;
8948;SDS011;4509;51.522;9.910;2022-07-24T02:45:18;1.60;;;1.60;;
8948;SDS011;4509;51.522;9.910;2022-07-24T02:47:47;1.53;;;1.53;;
8948;SDS011;4509;51.522;9.910;2022-07-24T02:50:15;1.60;;;1.60;;
8948;SDS011;4509;51.522;9.910;2022-07-24T02:52:43;1.50;;;1.50;;
8948;SDS011;4509;51.522;9.910;2022-07-24T02:55:09;1.50;;;1.50;;
8948;SDS011;4509;51.522;9.910;2022-07-24T02:57:37;1.50;;;1.50;;
8948;SDS011;4509;51.522;9.910;2022-07-24T03:00:04;1.50;;;1.50;;
8948;SDS011;4509;51.522;9.910;2022-07-24T03:02:32;1.60;;;1.60;;
8948;SDS011;4509;51.522;9.910;2022-07-24T03:05:00;1.43;;;1.43;;
8948;SDS011;4509;51.522;9.910;2022-07-24T03:07:28;1.37;;;1.37;;
8948;SDS011;4509;51.522;9.910;2022-07-24T03:09:54;1.50;;;1.50;;
8948;SDS011;4509;51.522;9.910;2022-07-24T03:12:21;1.40;;;1.40;;
8948;SDS011;4509;51.522;9.910;2022-07-24T03:14:48;1.47;;;1.47;;
8948;SDS011;4509;51.522;9.910;2022-07-24T03:17:15;1.40;;;1.40;;
8948;SDS011;4509;51.522;9.910;2022-07-24T03:19:42;1.40;;;1.40;;
8948;SDS011;4509;51.522;9.910;2022-07-24T03:22:10;1.63;;;1.63;;
8948;SDS011;4509;51.522;9.910;2022-07-24T03:24:37;1.60;;;1.60;;
8948;SDS011;4509;51.522;9.910;2022-07-24T03:27:04;1.50;;;1.50;;
8948;SDS011;4509;51.522;9.910;2022-07-24T03:29:30;1.50;;;1.50;;
8948;SDS011;4509;51.522;9.910;2022-07-24T03:31:57;1.53;;;1.53;;
8948;SDS011;4509;51.522;9.910;2022-07-24T03:34:23;1.80;;;1.80;;
8948;SDS011;4509;51.522;9.910;2022-07-24T03:36:50;1.67;;;1.67;;
8948;SDS011;4509;51.522;9.910;2022-07-24T03:39:18;1.60;;;1.60;;
8948;SDS011;4509;51.522;9.910;2022-07-24T03:41:45;1.60;;;1.60;;
8948;SDS011;4509;51.522;9.910;2022-07-24T03:44:11;1.70;;;1.70;;
8948;SDS011;4509;51.522;9.910;2022-07-24T03:46:38;1.60;;;1.60;;
8948;SDS011;4509;51.522;9.910;2022-07-24T03:49:05;1.70;;;1.70;;
8948;SDS011;4509;51.522;9.910;2022-07-24T03:51:31;1.70;;;1.70;;
8948;SDS011;4509;51.522;9.910;2022-07-24T03:54:00;1.63;;;1.63;;
8948;SDS011;4509;51.522;9.910;2022-07-24T03:56:28;2.00;;;2.00;;
8948;SDS011;4509;51.522;9.910;2022-07-24T03:58:55;1.70;;;1.70;;
8948;SDS011;4509;51.522;9.910;2022-07-24T04:01:21;1.90;;;1.90;;
8948;SDS011;4509;51.522;9.910;2022-07-24T04:03:48;1.77;;;1.77;;
8948;SDS011;4509;51.522;9.910;2022-07-24T04:06:15;1.90;;;1.90;;
8948;SDS011;4509;51.522;9.910;2022-07-24T04:08:42;1.77;;;1.77;;
8948;SDS011;4509;51.522;9.910;2022-07-24T04:11:08;1.93;;;1.93;;
8948;SDS011;4509;51.522;9.910;2022-07-24T04:13:36;1.70;;;1.70;;
8948;SDS011;4509;51.522;9.910;2022-07-24T04:16:03;2.00;;;2.00;;
8948;SDS011;4509;51.522;9.910;2022-07-24T04:18:30;1.70;;;1.70;;
8948;SDS011;4509;51.522;9.910;2022-07-24T04:20:57;1.67;;;1.67;;
8948;SDS011;4509;51.522;9.910;2022-07-24T04:23:24;1.70;;;1.70;;
8948;SDS011;4509;51.522;9.910;2022-07-24T04:25:50;1.80;;;1.80;;
8948;SDS011;4509;51.522;9.910;2022-07-24T04:28:17;1.60;;;1.60;;
8948;SDS011;4509;51.522;9.910;2022-07-24T04:30:45;1.60;;;1.60;;
8948;SDS011;4509;51.522;9.910;2022-07-24T04:33:12;1.70;;;1.70;;
8948;SDS011;4509;51.522;9.910;2022-07-24T04:35:38;1.57;;;1.57;;
8948;SDS011;4509;51.522;9.910;2022-07-24T04:38:05;1.50;;;1.50;;
8948;SDS011;4509;51.522;9.910;2022-07-24T04:40:32;1.60;;;1.60;;
8948;SDS011;4509;51.522;9.910;2022-07-24T04:42:58;1.50;;;1.50;;
8948;SDS011;4509;51.522;9.910;2022-07-24T04:45:25;1.53;;;1.53;;
8948;SDS011;4509;51.522;9.910;2022-07-24T04:47:53;1.57;;;1.57;;
8948;SDS011;4509;51.522;9.910;2022-07-24T04:50:20;1.50;;;1.50;;
8948;SDS011;4509;51.522;9.910;2022-07-24T04:52:46;1.40;;;1.40;;
8948;SDS011;4509;51.522;9.910;2022-07-24T04:55:13;1.47;;;1.47;;
8948;SDS011;4509;51.522;9.910;2022-07-24T04:57:40;1.50;;;1.50;;
8948;SDS011;4509;51.522;9.910;2022-07-24T05:00:08;1.53;;;1.53;;
8948;SDS011;4509;51.522;9.910;2022-07-24T05:02:36;1.50;;;1.50;;
8948;SDS011;4509;51.522;9.910;2022-07-24T05:05:05;1.57;;;1.57;;
8948;SDS011;4509;51.522;9.910;2022-07-24T05:07:32;1.40;;;1.40;;
8948;SDS011;4509;51.522;9.910;2022-07-24T05:09:59;1.60;;;1.60;;
8948;SDS011;4509;51.522;9.910;2022-07-24T05:12:26;1.50;;;1.50;;
8948;SDS011;4509;51.522;9.910;2022-07-24T05:14:53;1.60;;;1.60;;
8948;SDS011;4509;51.522;9.910;2022-07-24T05:17:19;1.60;;;1.60;;
8948;SDS011;4509;51.522;9.910;2022-07-24T05:19:46;1.40;;;1.40;;
8948;SDS011;4509;51.522;9.910;2022-07-24T05:22:14;1.50;;;1.50;;
8948;SDS011;4509;51.522;9.910;2022-07-24T05:24:41;1.67;;;1.67;;
8948;SDS011;4509;51.522;9.910;2022-07-24T05:27:07;1.60;;;1.60;;
8948;SDS011;4509;51.522;9.910;2022-07-24T05:29:34;1.70;;;1.70;;
8948;SDS011;4509;51.522;9.910;2022-07-24T05:32:01;1.50;;;1.50;;
8948;SDS011;4509;51.522;9.910;2022-07-24T05:34:27;1.30;;;1.30;;
8948;SDS011;4509;51.522;9.910;2022-07-24T05:36:54;1.67;;;1.67;;
8948;SDS011;4509;51.522;9.910;2022-07-24T05:39:22;1.40;;;1.40;;
8948;SDS011;4509;51.522;9.910;2022-07-24T05:41:49;1.80;;;1.80;;
8948;SDS011;4509;51.522;9.910;2022-07-24T05:44:16;1.60;;;1.60;;
8948;SDS011;4509;51.522;9.910;2022-07-24T05:46:42;1.80;;;1.80;;
8948;SDS011;4509;51.522;9.910;2022-07-24T05:49:09;1.80;;;1.80;;
8948;SDS011;4509;51.522;9.910;2022-07-24T05:51:35;1.80;;;1.80;;
8948;SDS011;4509;51.522;9.910;2022-07-24T05:54:02;1.90;;;1.90;;
8948;SDS011;4509;51.522;9.910;2022-07-24T05:56:30;2.07;;;2.07;;
8948;SDS011;4509;51.522;9.910;2022-07-24T05:58:57;2.00;;;2.00;;
8948;SDS011;4509;51.522;9.910;2022-07-24T06:01:24;2.10;;;2.10;;
8948;SDS011;4509;51.522;9.910;2022-07-24T06:03:50;2.00;;;2.00;;
8948;SDS011;4509;51.522;9.910;2022-07-24T06:06:17;1.80;;;1.80;;
8948;SDS011;4509;51.522;9.910;2022-07-24T06:08:44;1.70;;;1.70;;
8948;SDS011;4509;51.522;9.910;2022-07-24T06:11:11;2.00;;;2.00;;
8948;SDS011;4509;51.522;9.910;2022-07-24T06:13:39;1.83;;;1.83;;
8948;SDS011;4509;51.522;9.910;2022-07-24T06:16:06;1.83;;;1.83;;
8948;SDS011;4509;51.522;9.910;2022-07-24T06:18:32;1.87;;;1.87;;
8948;SDS011;4509;51.522;9.910;2022-07-24T06:20:59;2.23;;;2.13;;
8948;SDS011;4509;51.522;9.910;2022-07-24T06:23:26;2.07;;;2.07;;
8948;SDS011;4509;51.522;9.910;2022-07-24T06:25:52;2.33;;;2.23;;
8948;SDS011;4509;51.522;9.910;2022-07-24T06:28:19;2.20;;;2.10;;
8948;SDS011;4509;51.522;9.910;2022-07-24T06:30:47;2.33;;;2.23;;
8948;SDS011;4509;51.522;9.910;2022-07-24T06:33:14;2.47;;;2.37;;
8948;SDS011;4509;51.522;9.910;2022-07-24T06:35:43;2.50;;;2.40;;
8948;SDS011;4509;51.522;9.910;2022-07-24T06:38:10;2.43;;;2.33;;
8948;SDS011;4509;51.522;9.910;2022-07-24T06:40:37;2.70;;;2.60;;
8948;SDS011;4509;51.522;9.910;2022-07-24T06:43:03;2.90;;;2.80;;
8948;SDS011;4509;51.522;9.910;2022-07-24T06:45:31;3.33;;;3.23;;
8948;SDS011;4509;51.522;9.910;2022-07-24T06:47:59;3.47;;;3.37;;
8948;SDS011;4509;51.522;9.910;2022-07-24T06:50:26;3.70;;;3.60;;
8948;SDS011;4509;51.522;9.910;2022-07-24T06:52:53;4.43;;;4.23;;
8948;SDS011;4509;51.522;9.910;2022-07-24T06:55:20;4.27;;;4.10;;
8948;SDS011;4509;51.522;9.910;2022-07-24T06:57:47;4.93;;;4.73;;
8948;SDS011;4509;51.522;9.910;2022-07-24T07:00:14;4.83;;;4.63;;
8948;SDS011;4509;51.522;9.910;2022-07-24T07:02:41;5.83;;;5.63;;
8948;SDS011;4509;51.522;9.910;2022-07-24T07:05:09;5.83;;;5.63;;
8948;SDS011;4509;51.522;9.910;2022-07-24T07:07:36;6.00;;;5.80;;
8948;SDS011;4509;51.522;9.910;2022-07-24T07:10:04;6.30;;;6.10;;
8948;SDS011;4509;51.522;9.910;2022-07-24T07:12:32;5.33;;;5.13;;
8948;SDS011;4509;51.522;9.910;2022-07-24T07:14:59;5.30;;;5.10;;
8948;SDS011;4509;51.522;9.910;2022-07-24T07:17:25;5.00;;;4.80;;
8948;SDS011;4509;51.522;9.910;2022-07-24T07:19:52;4.00;;;3.90;;
8948;SDS011;4509;51.522;9.910;2022-07-24T07:22:20;4.00;;;3.90;;
8948;SDS011;4509;51.522;9.910;2022-07-24T07:24:47;3.38;;;3.28;;
8948;SDS011;4509;51.522;9.910;2022-07-24T07:27:14;3.45;;;3.35;;
8948;SDS011;4509;51.522;9.910;2022-07-24T07:29:40;2.92;;;2.83;;
8948;SDS011;4509;51.522;9.910;2022-07-24T07:32:07;2.42;;;2.33;;
8948;SDS011;4509;51.522;9.910;2022-07-24T07:34:34;2.50;;;2.40;;
8948;SDS011;4509;51.522;9.910;2022-07-24T07:37:00;2.70;;;2.60;;
8948;SDS011;4509;51.522;9.910;2022-07-24T07:39:28;2.50;;;2.40;;
8948;SDS011;4509;51.522;9.910;2022-07-24T07:41:58;2.08;;;2.08;;
8948;SDS011;4509;51.522;9.910;2022-07-24T07:44:24;2.67;;;2.58;;
8948;SDS011;4509;51.522;9.910;2022-07-24T07:46:51;3.03;;;2.92;;
8948;SDS011;4509;51.522;9.910;2022-07-24T07:49:18;2.95;;;2.85;;
8948;SDS011;4509;51.522;9.910;2022-07-24T07:51:45;2.75;;;2.65;;
8948;SDS011;4509;51.522;9.910;2022-07-24T07:54:12;2.92;;;2.83;;
8948;SDS011;4509;51.522;9.910;2022-07-24T07:56:40;2.92;;;2.83;;
8948;SDS011;4509;51.522;9.910;2022-07-24T07:59:07;2.90;;;2.80;;
8948;SDS011;4509;51.522;9.910;2022-07-24T08:01:34;2.90;;;2.80;;
8948;SDS011;4509;51.522;9.910;2022-07-24T08:04:01;3.08;;;2.97;;
8948;SDS011;4509;51.522;9.910;2022-07-24T08:06:28;3.45;;;3.35;;
8948;SDS011;4509;51.522;9.910;2022-07-24T08:08:55;3.55;;;3.45;;
8948;SDS011;4509;51.522;9.910;2022-07-24T08:11:22;3.80;;;3.70;;
8948;SDS011;4509;51.522;9.910;2022-07-24T08:13:50;3.53;;;3.42;;
8948;SDS011;4509;51.522;9.910;2022-07-24T08:16:17;3.75;;;3.65;;
8948;SDS011;4509;51.522;9.910;2022-07-24T08:18:43;3.80;;;3.70;;
8948;SDS011;4509;51.522;9.910;2022-07-24T08:21:10;3.88;;;3.78;;
8948;SDS011;4509;51.522;9.910;2022-07-24T08:23:37;3.60;;;3.50;;
8948;SDS011;4509;51.522;9.910;2022-07-24T08:26:05;3.60;;;3.50;;
8948;SDS011;4509;51.522;9.910;2022-07-24T08:28:32;3.35;;;3.25;;
8948;SDS011;4509;51.522;9.910;2022-07-24T08:31:00;3.33;;;3.22;;
8948;SDS011;4509;51.522;9.910;2022-07-24T08:33:27;2.85;;;2.75;;
8948;SDS011;4509;51.522;9.910;2022-07-24T08:35:54;3.00;;;2.90;;
8948;SDS011;4509;51.522;9.910;2022-07-24T08:38:21;2.95;;;2.85;;
8948;SDS011;4509;51.522;9.910;2022-07-24T08:40:47;3.13;;;3.03;;
8948;SDS011;4509;51.522;9.910;2022-07-24T08:43:14;3.35;;;3.25;;
8948;SDS011;4509;51.522;9.910;2022-07-24T08:45:42;3.20;;;3.10;;
8948;SDS011;4509;51.522;9.910;2022-07-24T08:48:11;3.38;;;3.28;;
8948;SDS011;4509;51.522;9.910;2022-07-24T08:50:39;3.22;;;3.13;;
8948;SDS011;4509;51.522;9.910;2022-07-24T08:53:18;3.10;;;3.00;;
8948;SDS011;4509;51.522;9.910;2022-07-24T08:55:46;2.70;;;2.60;;
8948;SDS011;4509;51.522;9.910;2022-07-24T08:58:12;2.50;;;2.40;;
8948;SDS011;4509;51.522;9.910;2022-07-24T09:00:39;2.55;;;2.45;;
8948;SDS011;4509;51.522;9.910;2022-07-24T09:03:06;2.65;;;2.55;;
8948;SDS011;4509;51.522;9.910;2022-07-24T09:05:34;2.97;;;2.88;;
8948;SDS011;4509;51.522;9.910;2022-07-24T09:08:18;3.10;;;3.00;;
8948;SDS011;4509;51.522;9.910;2022-07-24T09:10:52;3.65;;;3.55;;
8948;SDS011;4509;51.522;9.910;2022-07-24T09:13:20;3.58;;;3.47;;
8948;SDS011;4509;51.522;9.910;2022-07-24T09:15:51;3.90;;;3.80;;
8948;SDS011;4509;51.522;9.910;2022-07-24T09:18:25;4.45;;;4.28;;
8948;SDS011;4509;51.522;9.910;2022-07-24T09:20:55;4.75;;;4.55;;
8948;SDS011;4509;51.522;9.910;2022-07-24T09:23:21;4.15;;;4.03;;
8948;SDS011;4509;51.522;9.910;2022-07-24T09:25:50;4.22;;;4.10;;
8948;SDS011;4509;51.522;9.910;2022-07-24T09:28:18;4.60;;;4.40;;
8948;SDS011;4509;51.522;9.910;2022-07-24T09:30:45;4.45;;;4.28;;
8948;SDS011;4509;51.522;9.910;2022-07-24T09:33:16;4.53;;;4.35;;
8948;SDS011;4509;51.522;9.910;2022-07-24T09:35:45;4.95;;;4.75;;
8948;SDS011;4509;51.522;9.910;2022-07-24T09:38:15;5.00;;;4.80;;
8948;SDS011;4509;51.522;9.910;2022-07-24T09:40:42;5.45;;;5.25;;
8948;SDS011;4509;51.522;9.910;2022-07-24T09:43:15;5.22;;;5.03;;
8948;SDS011;4509;51.522;9.910;2022-07-24T09:45:59;4.78;;;4.57;;
8948;SDS011;4509;51.522;9.910;2022-07-24T09:48:28;4.80;;;4.60;;
8948;SDS011;4509;51.522;9.910;2022-07-24T09:50:57;4.45;;;4.25;;
8948;SDS011;4509;51.522;9.910;2022-07-24T09:53:27;4.18;;;4.05;;
8948;SDS011;4509;51.522;9.910;2022-07-24T09:55:56;3.65;;;3.55;;
8948;SDS011;4509;51.522;9.910;2022-07-24T09:58:28;3.65;;;3.55;;
8948;SDS011;4509;51.522;9.910;2022-07-24T10:00:57;3.35;;;3.25;;
8948;SDS011;4509;51.522;9.910;2022-07-24T10:03:26;3.00;;;2.90;;
8948;SDS011;4509;51.522;9.910;2022-07-24T10:05:55;3.28;;;3.17;;
8948;SDS011;4509;51.522;9.910;2022-07-24T10:08:23;3.20;;;3.10;;
8948;SDS011;4509;51.522;9.910;2022-07-24T10:10:52;3.28;;;3.17;;
8948;SDS011;4509;51.522;9.910;2022-07-24T10:13:19;3.67;;;3.58;;
8948;SDS011;4509;51.522;9.910;2022-07-24T10:15:53;3.50;;;3.40;;
8948;SDS011;4509;51.522;9.910;2022-07-24T10:18:31;4.13;;;4.03;;
8948;SDS011;4509;51.522;9.910;2022-07-24T10:21:06;4.32;;;4.15;;
8948;SDS011;4509;51.522;9.910;2022-07-24T10:23:38;4.43;;;4.22;;
8948;SDS011;4509;51.522;9.910;2022-07-24T10:26:29;4.57;;;4.38;;
8948;SDS011;4509;51.522;9.910;2022-07-24T10:29:05;5.07;;;4.88;;
8948;SDS011;4509;51.522;9.910;2022-07-24T10:31:35;5.75;;;5.55;;
8948;SDS011;4509;51.522;9.910;2022-07-24T10:34:04;5.53;;;5.32;;
8948;SDS011;4509;51.522;9.910;2022-07-24T10:36:39;5.72;;;5.53;;
8948;SDS011;4509;51.522;9.910;2022-07-24T10:39:13;6.90;;;6.60;;
8948;SDS011;4509;51.522;9.910;2022-07-24T10:41:51;6.25;;;6.05;;
8948;SDS011;4509;51.522;9.910;2022-07-24T10:44:26;5.85;;;5.65;;
8948;SDS011;4509;51.522;9.910;2022-07-24T10:46:59;6.57;;;6.32;;
8948;SDS011;4509;51.522;9.910;2022-07-24T10:49:42;6.25;;;6.05;;
8948;SDS011;4509;51.522;9.910;2022-07-24T10:52:26;6.18;;;5.97;;
8948;SDS011;4509;51.522;9.910;2022-07-24T10:57:54;5.47;;;5.28;;
8948;SDS011;4509;51.522;9.910;2022-07-24T11:00:23;6.35;;;6.13;;
8948;SDS011;4509;51.522;9.910;2022-07-24T11:02:55;6.15;;;5.95;;
8948;SDS011;4509;51.522;9.910;2022-07-24T11:05:24;6.32;;;6.13;;
8948;SDS011;4509;51.522;9.910;2022-07-24T11:10:58;5.50;;;5.30;;
8948;SDS011;4509;51.522;9.910;2022-07-24T11:16:28;5.85;;;5.65;;
8948;SDS011;4509;51.522;9.910;2022-07-24T11:22:01;5.90;;;5.70;;
8948;SDS011;4509;51.522;9.910;2022-07-24T11:24:41;5.53;;;5.32;;
8948;SDS011;4509;51.522;9.910;2022-07-24T11:27:30;5.55;;;5.35;;
8948;SDS011;4509;51.522;9.910;2022-07-24T11:30:09;5.80;;;5.60;;
8948;SDS011;4509;51.522;9.910;2022-07-24T11:32:36;6.22;;;6.03;;
8948;SDS011;4509;51.522;9.910;2022-07-24T11:35:05;6.00;;;5.80;;
8948;SDS011;4509;51.522;9.910;2022-07-24T11:37:34;5.82;;;5.63;;
8948;SDS011;4509;51.522;9.910;2022-07-24T11:40:01;6.28;;;6.07;;
8948;SDS011;4509;51.522;9.910;2022-07-24T11:42:29;5.80;;;5.60;;
8948;SDS011;4509;51.522;9.910;2022-07-24T11:44:59;5.90;;;5.70;;
8948;SDS011;4509;51.522;9.910;2022-07-24T11:47:28;6.15;;;5.95;;
8948;SDS011;4509;51.522;9.910;2022-07-24T11:49:56;5.95;;;5.75;;
8948;SDS011;4509;51.522;9.910;2022-07-24T11:52:26;6.25;;;6.05;;
8948;SDS011;4509;51.522;9.910;2022-07-24T11:54:58;5.65;;;5.45;;
8948;SDS011;4509;51.522;9.910;2022-07-24T11:57:26;5.57;;;5.38;;
8948;SDS011;4509;51.522;9.910;2022-07-24T11:59:54;4.68;;;4.47;;
8948;SDS011;4509;51.522;9.910;2022-07-24T12:02:21;5.05;;;4.85;;
8948;SDS011;4509;51.522;9.910;2022-07-24T12:04:50;4.68;;;4.47;;
8948;SDS011;4509;51.522;9.910;2022-07-24T12:07:19;4.57;;;4.38;;
8948;SDS011;4509;51.522;9.910;2022-07-24T12:09:48;4.30;;;4.15;;
8948;SDS011;4509;51.522;9.910;2022-07-24T12:12:17;4.65;;;4.45;;
8948;SDS011;4509;51.522;9.910;2022-07-24T12:14:45;5.38;;;5.18;;
8948;SDS011;4509;51.522;9.910;2022-07-24T12:17:12;4.78;;;4.57;;
8948;SDS011;4509;51.522;9.910;2022-07-24T12:19:39;5.15;;;4.95;;
8948;SDS011;4509;51.522;9.910;2022-07-24T12:22:07;5.20;;;5.00;;
8948;SDS011;4509;51.522;9.910;2022-07-24T12:24:34;5.55;;;5.35;;
8948;SDS011;4509;51.522;9.910;2022-07-24T12:27:00;6.22;;;6.03;;
8948;SDS011;4509;51.522;9.910;2022-07-24T12:29:27;4.65;;;4.45;;
8948;SDS011;4509;51.522;9.910;2022-07-24T12:34:42;6.57;;;6.35;;
8948;SDS011;4509;51.522;9.910;2022-07-24T12:37:17;6.00;;;5.80;;
8948;SDS011;4509;51.522;9.910;2022-07-24T12:39:45;6.05;;;5.85;;
8948;SDS011;4509;51.522;9.910;2022-07-24T12:42:13;6.43;;;6.22;;
8948;SDS011;4509;51.522;9.910;2022-07-24T12:44:41;5.30;;;5.10;;
8948;SDS011;4509;51.522;9.910;2022-07-24T12:47:09;5.75;;;5.55;;
8948;SDS011;4509;51.522;9.910;2022-07-24T12:49:40;5.45;;;5.25;;
8948;SDS011;4509;51.522;9.910;2022-07-24T12:52:19;6.63;;;6.35;;
8948;SDS011;4509;51.522;9.910;2022-07-24T12:54:48;6.88;;;6.57;;
8948;SDS011;4509;51.522;9.910;2022-07-24T12:57:16;8.10;;;7.80;;
8948;SDS011;4509;51.522;9.910;2022-07-24T12:59:47;8.45;;;8.15;;
8948;SDS011;4509;51.522;9.910;2022-07-24T13:02:16;7.75;;;7.45;;
8948;SDS011;4509;51.522;9.910;2022-07-24T13:04:44;6.63;;;6.35;;
8948;SDS011;4509;51.522;9.910;2022-07-24T13:07:13;6.80;;;6.50;;
8948;SDS011;4509;51.522;9.910;2022-07-24T13:09:42;6.57;;;6.32;;
8948;SDS011;4509;51.522;9.910;2022-07-24T13:12:09;6.82;;;6.53;;
8948;SDS011;4509;51.522;9.910;2022-07-24T13:14:38;6.18;;;5.97;;
8948;SDS011;4509;51.522;9.910;2022-07-24T13:17:05;6.07;;;5.88;;
8948;SDS011;4509;51.522;9.910;2022-07-24T13:19:35;6.68;;;6.40;;
8948;SDS011;4509;51.522;9.910;2022-07-24T13:22:04;7.50;;;7.20;;
8948;SDS011;4509;51.522;9.910;2022-07-24T13:24:31;7.88;;;7.57;;
8948;SDS011;4509;51.522;9.910;2022-07-24T13:27:00;7.05;;;6.75;;
8948;SDS011;4509;51.522;9.910;2022-07-24T13:29:27;7.10;;;6.80;;
8948;SDS011;4509;51.522;9.910;2022-07-24T13:31:53;7.03;;;6.72;;
8948;SDS011;4509;51.522;9.910;2022-07-24T13:34:20;7.75;;;7.45;;
8948;SDS011;4509;51.522;9.910;2022-07-24T13:36:48;7.30;;;7.00;;
8948;SDS011;4509;51.522;9.910;2022-07-24T13:39:15;7.20;;;6.90;;
8948;SDS011;4509;51.522;9.910;2022-07-24T13:41:42;7.18;;;6.88;;
8948;SDS011;4509;51.522;9.910;2022-07-24T13:44:10;7.25;;;6.95;;
8948;SDS011;4509;51.522;9.910;2022-07-24T13:46:37;6.97;;;6.68;;
8948;SDS011;4509;51.522;9.910;2022-07-24T13:49:04;6.63;;;6.38;;
8948;SDS011;4509;51.522;9.910;2022-07-24T13:51:32;6.90;;;6.60;;
8948;SDS011;4509;51.522;9.910;2022-07-24T13:53:59;7.57;;;7.28;;
8948;SDS011;4509;51.522;9.910;2022-07-24T13:56:26;6.78;;;6.53;;
8948;SDS011;4509;51.522;9.910;2022-07-24T13:58:52;7.57;;;7.28;;
8948;SDS011;4509;51.522;9.910;2022-07-24T14:01:21;7.60;;;7.30;;
8948;SDS011;4509;51.522;9.910;2022-07-24T14:03:47;7.22;;;6.93;;
8948;SDS011;4509;51.522;9.910;2022-07-24T14:06:14;6.28;;;6.07;;
8948;SDS011;4509;51.522;9.910;2022-07-24T14:08:40;5.97;;;5.78;;
8948;SDS011;4509;51.522;9.910;2022-07-24T14:11:07;5.50;;;5.30;;
8948;SDS011;4509;51.522;9.910;2022-07-24T14:13:35;4.80;;;4.60;;
8948;SDS011;4509;51.522;9.910;2022-07-24T14:16:02;4.80;;;4.60;;
8948;SDS011;4509;51.522;9.910;2022-07-24T14:18:30;4.63;;;4.43;;
8948;SDS011;4509;51.522;9.910;2022-07-24T14:20:57;4.45;;;4.25;;
8948;SDS011;4509;51.522;9.910;2022-07-24T14:23:24;4.70;;;4.50;;
8948;SDS011;4509;51.522;9.910;2022-07-24T14:25:51;4.30;;;4.13;;
8948;SDS011;4509;51.522;9.910;2022-07-24T14:28:18;4.75;;;4.55;;
8948;SDS011;4509;51.522;9.910;2022-07-24T14:30:44;4.05;;;3.95;;
8948;SDS011;4509;51.522;9.910;2022-07-24T14:33:11;4.40;;;4.20;;
8948;SDS011;4509;51.522;9.910;2022-07-24T14:35:39;3.95;;;3.85;;
8948;SDS011;4509;51.522;9.910;2022-07-24T14:38:06;4.60;;;4.40;;
8948;SDS011;4509;51.522;9.910;2022-07-24T14:40:32;4.32;;;4.15;;
8948;SDS011;4509;51.522;9.910;2022-07-24T14:42:59;4.10;;;4.00;;
8948;SDS011;4509;51.522;9.910;2022-07-24T14:45:26;4.30;;;4.10;;
8948;SDS011;4509;51.522;9.910;2022-07-24T14:47:53;4.60;;;4.40;;
8948;SDS011;4509;51.522;9.910;2022-07-24T14:50:19;4.80;;;4.60;;
8948;SDS011;4509;51.522;9.910;2022-07-24T14:52:47;5.00;;;4.80;;
8948;SDS011;4509;51.522;9.910;2022-07-24T14:55:14;5.05;;;4.85;;
8948;SDS011;4509;51.522;9.910;2022-07-24T14:57:41;5.50;;;5.30;;
8948;SDS011;4509;51.522;9.910;2022-07-24T15:00:08;5.38;;;5.18;;
8948;SDS011;4509;51.522;9.910;2022-07-24T15:02:36;4.80;;;4.60;;
8948;SDS011;4509;51.522;9.910;2022-07-24T15:05:03;5.13;;;4.93;;
8948;SDS011;4509;51.522;9.910;2022-07-24T15:07:30;4.88;;;4.68;;
8948;SDS011;4509;51.522;9.910;2022-07-24T15:09:58;4.80;;;4.60;;
8948;SDS011;4509;51.522;9.910;2022-07-24T15:12:24;4.68;;;4.47;;
8948;SDS011;4509;51.522;9.910;2022-07-24T15:14:51;4.70;;;4.50;;
8948;SDS011;4509;51.522;9.910;2022-07-24T15:17:17;4.50;;;4.30;;
8948;SDS011;4509;51.522;9.910;2022-07-24T15:19:44;4.65;;;4.45;;
8948;SDS011;4509;51.522;9.910;2022-07-24T15:22:11;4.70;;;4.50;;
8948;SDS011;4509;51.522;9.910;2022-07-24T15:24:37;5.20;;;5.00;;
8948;SDS011;4509;51.522;9.910;2022-07-24T15:27:05;5.20;;;5.00;;
8948;SDS011;4509;51.522;9.910;2022-07-24T15:29:33;5.10;;;4.90;;
8948;SDS011;4509;51.522;9.910;2022-07-24T15:32:00;5.97;;;5.78;;
8948;SDS011;4509;51.522;9.910;2022-07-24T15:34:26;4.93;;;4.72;;